createdAt,value
2023-01-10T01:19:25.321Z,101428.14
2023-01-10T01:21:52.508Z,101434.94
2023-01-10T01:24:21.550Z,101437.13
2023-01-10T01:26:48.629Z,101445.66
2023-01-10T01:29:17.935Z,101454.12
2023-01-10T01:31:45.057Z,101454.08
2023-01-10T01:34:12.227Z,101462.58
2023-01-10T01:36:39.256Z,101467.16
2023-01-10T01:39:06.464Z,101466.30
2023-01-10T01:41:52.105Z,101461.83
2023-01-10T01:44:19.596Z,101461.23
2023-01-10T01:46:51.937Z,101462.84
2023-01-10T01:49:22.057Z,101468.19
2023-01-10T01:51:49.696Z,101471.31
2023-01-10T01:54:16.935Z,101479.11
2023-01-10T01:57:07.728Z,101484.67
2023-01-10T01:59:37.077Z,101485.80
2023-01-10T02:02:16.305Z,101479.44
2023-01-10T02:04:52.299Z,101493.16
2023-01-10T02:07:19.483Z,101491.71
2023-01-10T02:10:16.463Z,101493.02
2023-01-10T02:12:44.540Z,101499.18
2023-01-10T02:15:12.244Z,101500.77
2023-01-10T02:17:39.322Z,101496.39
2023-01-10T02:20:10.982Z,101492.52
2023-01-10T02:22:40.434Z,101504.18
2023-01-10T02:25:19.837Z,101498.04
2023-01-10T02:28:06.342Z,101502.56
2023-01-10T02:31:01.052Z,101492.52
2023-01-10T02:33:30.708Z,101501.13
2023-01-10T02:36:10.033Z,101490.08
2023-01-10T02:38:46.242Z,101488.09
2023-01-10T02:41:26.996Z,101486.20
2023-01-10T02:44:04.686Z,101488.95
2023-01-10T02:46:32.010Z,101476.65
2023-01-10T02:48:59.144Z,101474.61
2023-01-10T02:51:27.866Z,101465.39
2023-01-10T02:53:59.691Z,101481.42
2023-01-10T02:56:54.930Z,101478.59
2023-01-10T02:59:21.941Z,101466.40
2023-01-10T03:02:15.280Z,101461.74
2023-01-10T03:04:48.699Z,101438.04
2023-01-10T03:07:20.907Z,101432.30
2023-01-10T03:09:55.487Z,101432.25
2023-01-10T03:12:28.510Z,101412.16
2023-01-10T03:14:55.778Z,101426.86
2023-01-10T03:17:22.835Z,101424.02
2023-01-10T03:19:51.564Z,101445.04
2023-01-10T03:22:18.833Z,101443.38
2023-01-10T03:24:48.483Z,101414.52
2023-01-10T03:27:30.527Z,101418.15
2023-01-10T03:30:26.848Z,101426.43
2023-01-10T03:32:54.521Z,101420.98
2023-01-10T03:35:22.082Z,101431.02
2023-01-10T03:38:08.999Z,101413.86
2023-01-10T03:40:37.550Z,101428.63
2023-01-10T03:43:36.978Z,101424.91
2023-01-10T03:46:12.250Z,101420.52
2023-01-10T03:48:41.711Z,101429.25
2023-01-10T03:51:08.755Z,101421.88
2023-01-10T03:53:37.257Z,101437.70
2023-01-10T03:56:04.616Z,101436.05
2023-01-10T03:58:31.829Z,101429.55
2023-01-10T04:00:59.000Z,101422.17
2023-01-10T04:03:26.143Z,101427.75
2023-01-10T04:05:53.229Z,101454.75
2023-01-10T04:08:20.282Z,101450.25
2023-01-10T04:10:49.444Z,101444.62
2023-01-10T04:13:16.567Z,101453.63
2023-01-10T04:15:43.640Z,101446.39
2023-01-10T04:18:10.828Z,101452.98
2023-01-10T04:20:37.841Z,101445.58
2023-01-10T04:23:04.835Z,101449.73
2023-01-10T04:25:31.998Z,101448.91
2023-01-10T04:27:59.702Z,101444.99
2023-01-10T04:30:27.450Z,101452.85
2023-01-10T04:32:54.554Z,101448.95
2023-01-10T04:35:21.722Z,101444.84
2023-01-10T04:37:48.869Z,101441.80
2023-01-10T04:40:19.575Z,101434.76
2023-01-10T04:42:46.931Z,101449.61
2023-01-10T04:45:17.892Z,101436.08
2023-01-10T04:47:49.709Z,101446.88
2023-01-10T04:50:16.750Z,101442.17
2023-01-10T04:52:43.847Z,101422.71
2023-01-10T04:55:10.895Z,101448.54
2023-01-10T04:57:37.946Z,101441.65
2023-01-10T05:00:05.604Z,101453.96
2023-01-10T05:02:32.852Z,101453.41
2023-01-10T05:04:59.982Z,101452.49
2023-01-10T05:07:27.544Z,101462.97
2023-01-10T05:09:54.568Z,101463.35
2023-01-10T05:12:21.711Z,101471.88
2023-01-10T05:14:48.852Z,101460.50
2023-01-10T05:17:15.879Z,101462.71
2023-01-10T05:19:43.117Z,101471.91
2023-01-10T05:22:10.206Z,101463.77
2023-01-10T05:24:37.260Z,101479.76
2023-01-10T05:27:04.376Z,101470.48
2023-01-10T05:29:31.497Z,101472.91
2023-01-10T05:31:58.588Z,101472.93
2023-01-10T05:34:25.760Z,101490.41
2023-01-10T05:36:52.819Z,101491.94
2023-01-10T05:39:20.015Z,101496.86
2023-01-10T05:41:47.380Z,101497.33
2023-01-10T05:44:14.979Z,101506.92
2023-01-10T05:46:42.111Z,101496.71
2023-01-10T05:49:09.318Z,101505.50
2023-01-10T05:51:36.853Z,101508.83
2023-01-10T05:54:04.300Z,101495.42
2023-01-10T05:56:31.683Z,101504.44
2023-01-10T05:59:07.729Z,101519.61
2023-01-10T06:01:36.922Z,101531.08
2023-01-10T06:04:04.029Z,101526.73
2023-01-10T06:06:31.133Z,101528.25
2023-01-10T06:08:59.363Z,101532.90
2023-01-10T06:11:30.165Z,101530.38
2023-01-10T06:13:58.087Z,101528.45
2023-01-10T06:16:25.425Z,101536.48
2023-01-10T06:18:52.577Z,101534.62
2023-01-10T06:21:19.851Z,101534.48
2023-01-10T06:23:46.913Z,101540.55
2023-01-10T06:26:14.126Z,101552.52
2023-01-10T06:28:44.224Z,101554.02
2023-01-10T06:31:11.419Z,101555.05
2023-01-10T06:33:39.149Z,101557.47
2023-01-10T06:36:06.766Z,101567.60
2023-01-10T06:38:34.532Z,101541.95
2023-01-10T06:41:13.262Z,101557.79
2023-01-10T06:43:45.544Z,101532.98
2023-01-10T06:46:18.479Z,101542.94
2023-01-10T06:48:45.875Z,101556.34
2023-01-10T06:51:13.954Z,101556.70
2023-01-10T06:53:41.365Z,101537.00
2023-01-10T06:56:09.946Z,101553.48
2023-01-10T06:58:38.896Z,101532.20
2023-01-10T07:01:16.538Z,101543.21
2023-01-10T07:03:43.991Z,101548.21
2023-01-10T10:19:17.954Z,101492.34
2023-01-10T10:21:54.097Z,101487.39
2023-01-10T10:24:33.538Z,101493.22
2023-01-10T10:27:33.641Z,101504.02
2023-01-10T10:30:00.875Z,101481.34
2023-01-10T10:32:34.209Z,101501.92
2023-01-10T10:35:04.245Z,101497.70
2023-01-10T10:37:33.830Z,101489.91
2023-01-10T10:40:11.819Z,101517.11
2023-01-10T10:42:40.393Z,101496.82
2023-01-10T10:45:14.960Z,101499.07
2023-01-10T10:47:43.011Z,101494.73
2023-01-10T10:50:16.283Z,101494.23
2023-01-10T10:52:44.123Z,101498.22
2023-01-10T10:55:16.399Z,101506.05
2023-01-10T10:57:59.045Z,101510.09
2023-01-10T11:00:27.638Z,101515.05
2023-01-10T11:03:05.827Z,101508.77
2023-01-10T11:05:38.019Z,101507.89
2023-01-10T11:08:08.749Z,101513.70
2023-01-10T11:10:35.962Z,101515.55
2023-01-10T11:13:23.444Z,101527.92
2023-01-10T11:15:50.815Z,101521.04
2023-01-10T11:18:23.131Z,101512.52
2023-01-10T11:21:11.771Z,101539.49
2023-01-10T11:23:52.661Z,101532.23
2023-01-10T11:26:36.940Z,101539.59
2023-01-10T11:29:47.532Z,101553.54
2023-01-10T11:32:17.030Z,101544.94
2023-01-10T11:34:54.144Z,101539.36
2023-01-10T11:37:29.372Z,101528.64
2023-01-10T11:40:25.968Z,101536.89
2023-01-10T11:42:59.293Z,101546.89
2023-01-10T11:45:32.149Z,101551.98
2023-01-10T11:48:32.919Z,101551.55
2023-01-10T11:51:34.318Z,101547.54
2023-01-10T11:54:10.952Z,101546.23
2023-01-10T11:56:40.136Z,101534.13
2023-01-10T11:59:15.355Z,101518.17
2023-01-10T12:01:45.006Z,101530.59
2023-01-10T12:04:18.759Z,101530.23
2023-01-10T12:06:46.503Z,101536.55
2023-01-10T12:09:40.010Z,101536.41
2023-01-10T12:12:18.205Z,101519.30
2023-01-10T12:14:46.153Z,101537.55
2023-01-10T12:17:30.588Z,101553.27
2023-01-10T12:20:00.820Z,101527.64
2023-01-10T12:22:35.851Z,101515.96
2023-01-10T12:25:06.547Z,101538.17
2023-01-10T12:27:33.706Z,101533.28
2023-01-10T12:30:07.245Z,101525.08
2023-01-10T12:32:39.334Z,101535.23
2023-01-10T12:35:24.938Z,101539.06
2023-01-10T12:38:05.544Z,101524.03
2023-01-10T12:40:40.318Z,101541.38
2023-01-10T12:43:31.690Z,101548.92
2023-01-10T12:46:09.632Z,101505.66
2023-01-10T12:48:49.996Z,101543.05
2023-01-10T12:51:19.959Z,101545.48
2023-01-10T12:53:55.597Z,101554.62
2023-01-10T12:56:23.355Z,101552.36
2023-01-10T12:59:00.883Z,101538.66
2023-01-10T13:01:30.439Z,101549.11
2023-01-10T13:04:10.276Z,101556.27
2023-01-10T13:06:41.502Z,101539.58
2023-01-10T13:09:14.515Z,101547.67
2023-01-10T13:11:51.394Z,101566.44
2023-01-10T13:14:18.975Z,101557.25
2023-01-10T13:16:50.037Z,101548.63
2023-01-10T13:19:20.122Z,101545.27
2023-01-10T13:21:47.458Z,101513.45
2023-01-10T13:24:26.668Z,101538.84
2023-01-10T13:26:53.947Z,101555.88
2023-01-10T13:29:22.700Z,101557.23
2023-01-10T13:31:51.558Z,101554.73
2023-01-10T13:34:18.887Z,101555.70
2023-01-10T13:36:56.753Z,101573.92
2023-01-10T13:39:41.328Z,101560.86
2023-01-10T13:42:27.024Z,101557.51
2023-01-10T13:45:16.001Z,101544.42
2023-01-10T13:47:43.843Z,101563.50
2023-01-10T13:50:23.580Z,101544.45
2023-01-10T13:52:54.109Z,101556.85
2023-01-10T13:55:25.277Z,101569.61
2023-01-10T13:57:54.572Z,101566.89
2023-01-10T14:01:09.614Z,101580.74
2023-01-10T14:03:50.483Z,101561.16
2023-01-10T14:06:30.421Z,101555.09
2023-01-10T14:09:05.765Z,101561.36
2023-01-10T14:11:45.236Z,101569.89
2023-01-10T14:14:34.458Z,101585.55
2023-01-10T14:17:15.849Z,101580.14
2023-01-10T14:19:44.283Z,101589.82
2023-01-10T14:22:31.405Z,101568.75
2023-01-10T14:24:59.945Z,101563.45
2023-01-10T14:27:32.452Z,101600.25
2023-01-10T14:30:00.107Z,101604.15
2023-01-10T14:32:41.051Z,101609.38
2023-01-10T14:35:09.465Z,101597.67
2023-01-10T14:38:07.163Z,101609.06
2023-01-10T14:40:43.804Z,101622.07
2023-01-10T14:43:16.050Z,101614.55
2023-01-10T14:46:00.449Z,101625.95
2023-01-10T14:48:35.595Z,101600.66
2023-01-10T14:51:25.658Z,101621.65
2023-01-10T14:54:03.210Z,101628.23
2023-01-10T14:56:37.279Z,101642.95
2023-01-10T14:59:28.248Z,101633.34
2023-01-10T15:02:15.211Z,101649.24
2023-01-10T15:04:50.668Z,101630.98
2023-01-10T15:07:17.848Z,101610.65
2023-01-10T15:09:51.781Z,101616.06
2023-01-10T15:12:20.361Z,101627.92
2023-01-10T15:14:48.631Z,101624.45
2023-01-10T15:17:20.803Z,101632.95
2023-01-10T15:19:49.967Z,101651.61
2023-01-10T15:22:31.789Z,101644.30
2023-01-10T15:25:06.659Z,101635.11
2023-01-10T15:27:34.154Z,101627.40
2023-01-10T15:30:01.367Z,101644.14
2023-01-10T15:32:37.210Z,101646.52
2023-01-10T15:35:04.738Z,101649.97
2023-01-10T15:37:38.378Z,101654.31
2023-01-10T15:40:06.778Z,101655.08
2023-01-10T15:42:35.454Z,101654.55
2023-01-10T15:45:40.116Z,101657.30
2023-01-10T15:48:23.532Z,101666.29
2023-01-10T15:50:55.253Z,101668.75
2023-01-10T15:53:22.502Z,101669.55
2023-01-10T15:55:51.334Z,101665.52
2023-01-10T15:58:20.068Z,101664.92
2023-01-10T16:00:47.656Z,101648.89
2023-01-10T16:03:38.008Z,101661.02
2023-01-10T16:06:09.882Z,101670.81
2023-01-10T19:20:41.719Z,101691.12
2023-01-10T19:23:08.914Z,101698.35
2023-01-10T19:25:36.071Z,101694.24
2023-01-10T19:28:03.253Z,101694.63
2023-01-10T19:30:30.661Z,101703.77
2023-01-10T19:32:57.808Z,101710.17
2023-01-10T19:35:24.929Z,101725.55
2023-01-10T19:37:52.098Z,101709.62
2023-01-10T19:40:19.278Z,101712.67
2023-01-10T19:42:46.406Z,101716.78
2023-01-10T19:45:13.557Z,101694.84
2023-01-10T19:47:40.622Z,101722.91
2023-01-10T19:50:08.076Z,101723.61
2023-01-10T19:52:35.338Z,101714.62
2023-01-10T19:55:02.617Z,101720.72
2023-01-10T19:57:29.789Z,101721.91
2023-01-10T19:59:58.227Z,101723.48
2023-01-10T20:02:25.616Z,101734.66
2023-01-10T20:04:52.779Z,101727.45
2023-01-10T20:07:19.950Z,101716.98
2023-01-10T20:09:47.177Z,101718.52
2023-01-10T20:12:15.124Z,101739.40
2023-01-10T20:14:42.196Z,101747.17
2023-01-10T20:17:09.493Z,101740.34
2023-01-10T20:19:36.589Z,101753.17
2023-01-10T20:22:03.704Z,101742.95
2023-01-10T20:24:30.856Z,101743.75
2023-01-10T20:26:58.746Z,101751.10
2023-01-10T20:29:25.814Z,101758.73
2023-01-10T20:31:56.043Z,101736.65
2023-01-10T20:34:23.190Z,101745.27
2023-01-10T20:36:52.761Z,101754.98
2023-01-10T20:39:20.163Z,101749.70
2023-01-10T20:41:47.267Z,101770.31
2023-01-10T20:44:14.569Z,101752.84
2023-01-10T20:46:41.655Z,101769.29
2023-01-10T20:49:08.809Z,101751.31
2023-01-10T20:51:36.071Z,101768.67
2023-01-10T20:54:04.304Z,101757.58
2023-01-10T20:56:31.898Z,101756.94
2023-01-10T20:58:59.078Z,101757.26
2023-01-10T21:01:34.652Z,101760.27
2023-01-10T21:04:04.554Z,101752.69
2023-01-10T21:06:31.721Z,101744.68
2023-01-10T21:08:58.988Z,101745.27
2023-01-10T21:11:26.238Z,101743.08
2023-01-10T21:13:53.321Z,101755.99
2023-01-10T21:16:22.588Z,101749.42
2023-01-10T21:18:50.866Z,101762.25
2023-01-10T21:21:20.102Z,101748.23
2023-01-10T21:23:47.228Z,101744.64
2023-01-10T21:26:15.025Z,101751.69
2023-01-10T21:28:46.878Z,101767.03
2023-01-10T21:31:21.260Z,101747.55
2023-01-10T21:33:49.581Z,101734.23
2023-01-10T21:36:16.970Z,101737.79
2023-01-10T21:38:45.242Z,101753.96
2023-01-10T21:41:13.150Z,101744.87
2023-01-10T21:43:44.588Z,101733.39
2023-01-10T21:46:12.105Z,101734.89
2023-01-10T21:48:39.312Z,101744.62
2023-01-10T21:51:06.415Z,101749.76
2023-01-10T21:53:33.496Z,101745.40
2023-01-10T21:56:00.955Z,101738.64
2023-01-10T21:58:28.043Z,101741.53
2023-01-10T22:00:57.371Z,101729.65
2023-01-10T22:03:24.687Z,101722.27
2023-01-10T22:05:51.760Z,101738.28
2023-01-10T22:08:18.910Z,101737.42
2023-01-10T22:10:46.047Z,101718.06
2023-01-10T22:13:13.135Z,101707.93
2023-01-10T22:15:41.375Z,101709.38
2023-01-10T22:18:08.931Z,101716.55
2023-01-10T22:20:36.190Z,101711.66
2023-01-10T22:23:03.675Z,101702.78
2023-01-10T22:25:30.798Z,101710.86
2023-01-10T22:27:57.895Z,101705.58
2023-01-10T22:30:24.998Z,101718.45
2023-01-10T22:32:56.114Z,101706.02
2023-01-10T22:35:26.289Z,101716.24
2023-01-10T22:37:55.381Z,101719.83
2023-01-10T22:40:23.103Z,101707.08
2023-01-10T22:42:52.668Z,101716.98
2023-01-10T22:45:19.743Z,101703.58
2023-01-10T22:47:49.867Z,101711.79
2023-01-10T22:50:17.927Z,101704.59
2023-01-10T22:52:47.837Z,101703.56
2023-01-10T22:55:15.286Z,101705.70
2023-01-10T22:57:47.099Z,101709.55
2023-01-10T23:02:59.429Z,101717.39
2023-01-10T23:05:27.017Z,101709.06
2023-01-10T23:07:54.076Z,101710.33
2023-01-10T23:10:30.384Z,101697.14
2023-01-10T23:12:58.149Z,101695.77
2023-01-10T23:15:25.578Z,101700.77
2023-01-10T23:17:52.666Z,101705.27
2023-01-10T23:20:19.713Z,101706.69
2023-01-10T23:22:46.940Z,101694.31
2023-01-10T23:25:13.962Z,101697.56
2023-01-10T23:27:40.942Z,101697.91
2023-01-10T23:30:09.216Z,101686.62
2023-01-10T23:32:36.352Z,101711.01
2023-01-10T23:35:03.854Z,101701.56
2023-01-10T23:37:31.001Z,101710.24
2023-01-10T23:39:58.023Z,101700.45
2023-01-10T23:42:25.029Z,101693.81
2023-01-10T23:44:52.063Z,101707.63
2023-01-10T23:47:19.133Z,101695.26
2023-01-10T23:49:46.127Z,101702.81
2023-01-10T23:52:15.045Z,101706.66
2023-01-10T23:54:42.025Z,101713.55
2023-01-10T23:57:09.089Z,101708.13
2023-01-10T23:59:36.167Z,101698.55
